sensor_id;sensor_type;location;lat;lon;timestamp;P1;P2;P0
43280;PMS5003;62175;49.416;8.690;2023-02-25T00:00:15;5;5;
43280;PMS5003;62175;49.416;8.690;2023-02-25T00:02:44;6;6;
43280;PMS5003;62175;49.416;8.690;2023-02-25T00:05:11;6;5;
43280;PMS5003;62175;49.416;8.690;2023-02-25T00:07:39;6;5;
43280;PMS5003;62175;49.416;8.690;2023-02-25T00:10:07;6;5;
43280;PMS5003;62175;49.416;8.690;2023-02-25T00:12:36;6;6;
43280;PMS5003;62175;49.416;8.690;2023-02-25T00:15:04;6;5;
43280;PMS5003;62175;49.416;8.690;2023-02-25T00:17:33;6;6;
43280;PMS5003;62175;49.416;8.690;2023-02-25T00:20:02;11;10;
43280;PMS5003;62175;49.416;8.690;2023-02-25T00:22:30;6;6;
43280;PMS5003;62175;49.416;8.690;2023-02-25T00:24:57;5;4;
43280;PMS5003;62175;49.416;8.690;2023-02-25T00:27:24;4;4;
43280;PMS5003;62175;49.416;8.690;2023-02-25T00:29:54;7;7;
43280;PMS5003;62175;49.416;8.690;2023-02-25T00:32:21;5;4;
43280;PMS5003;62175;49.416;8.690;2023-02-25T00:34:48;6;6;
43280;PMS5003;62175;49.416;8.690;2023-02-25T00:37:15;8;6;
43280;PMS5003;62175;49.416;8.690;2023-02-25T00:39:42;7;7;
43280;PMS5003;62175;49.416;8.690;2023-02-25T00:42:10;7;7;
43280;PMS5003;62175;49.416;8.690;2023-02-25T00:44:39;8;7;
43280;PMS5003;62175;49.416;8.690;2023-02-25T00:47:09;5;5;
43280;PMS5003;62175;49.416;8.690;2023-02-25T00:49:40;7;6;
43280;PMS5003;62175;49.416;8.690;2023-02-25T00:52:09;5;4;
43280;PMS5003;62175;49.416;8.690;2023-02-25T00:54:37;7;6;
43280;PMS5003;62175;49.416;8.690;2023-02-25T00:57:05;6;6;
43280;PMS5003;62175;49.416;8.690;2023-02-25T00:59:32;4;4;
43280;PMS5003;62175;49.416;8.690;2023-02-25T01:01:59;5;4;
43280;PMS5003;62175;49.416;8.690;2023-02-25T01:04:27;5;5;
43280;PMS5003;62175;49.416;8.690;2023-02-25T01:06:54;6;5;
43280;PMS5003;62175;49.416;8.690;2023-02-25T01:09:22;6;5;
43280;PMS5003;62175;49.416;8.690;2023-02-25T01:11:50;4;4;
43280;PMS5003;62175;49.416;8.690;2023-02-25T01:14:18;3;3;
43280;PMS5003;62175;49.416;8.690;2023-02-25T01:16:46;2;2;
43280;PMS5003;62175;49.416;8.690;2023-02-25T01:19:16;4;4;
43280;PMS5003;62175;49.416;8.690;2023-02-25T01:21:51;5;5;
43280;PMS5003;62175;49.416;8.690;2023-02-25T01:24:21;5;3;
43280;PMS5003;62175;49.416;8.690;2023-02-25T01:26:50;6;4;
43280;PMS5003;62175;49.416;8.690;2023-02-25T01:29:21;2;2;
43280;PMS5003;62175;49.416;8.690;2023-02-25T01:31:50;6;6;
43280;PMS5003;62175;49.416;8.690;2023-02-25T01:34:17;5;4;
43280;PMS5003;62175;49.416;8.690;2023-02-25T01:36:46;3;3;
43280;PMS5003;62175;49.416;8.690;2023-02-25T01:39:15;7;6;
43280;PMS5003;62175;49.416;8.690;2023-02-25T01:41:47;6;5;
43280;PMS5003;62175;49.416;8.690;2023-02-25T01:44:16;3;3;
43280;PMS5003;62175;49.416;8.690;2023-02-25T01:46:46;4;4;
43280;PMS5003;62175;49.416;8.690;2023-02-25T01:49:15;5;5;
43280;PMS5003;62175;49.416;8.690;2023-02-25T01:51:47;8;7;
43280;PMS5003;62175;49.416;8.690;2023-02-25T01:54:17;3;3;
43280;PMS5003;62175;49.416;8.690;2023-02-25T01:56:48;3;3;
43280;PMS5003;62175;49.416;8.690;2023-02-25T01:59:18;6;5;
43280;PMS5003;62175;49.416;8.690;2023-02-25T02:01:48;4;3;
43280;PMS5003;62175;49.416;8.690;2023-02-25T02:04:16;4;4;
43280;PMS5003;62175;49.416;8.690;2023-02-25T02:06:45;7;6;
43280;PMS5003;62175;49.416;8.690;2023-02-25T02:09:16;6;5;
43280;PMS5003;62175;49.416;8.690;2023-02-25T02:11:45;5;5;
43280;PMS5003;62175;49.416;8.690;2023-02-25T02:14:13;6;4;
43280;PMS5003;62175;49.416;8.690;2023-02-25T02:16:50;5;5;
43280;PMS5003;62175;49.416;8.690;2023-02-25T02:19:30;7;7;
43280;PMS5003;62175;49.416;8.690;2023-02-25T02:22:08;9;8;
43280;PMS5003;62175;49.416;8.690;2023-02-25T02:26:55;6;5;
43280;PMS5003;62175;49.416;8.690;2023-02-25T02:29:34;6;5;
43280;PMS5003;62175;49.416;8.690;2023-02-25T02:32:19;7;4;
43280;PMS5003;62175;49.416;8.690;2023-02-25T02:34:58;5;4;
43280;PMS5003;62175;49.416;8.690;2023-02-25T02:37:36;8;7;
43280;PMS5003;62175;49.416;8.690;2023-02-25T02:40:13;7;6;
43280;PMS5003;62175;49.416;8.690;2023-02-25T02:42:50;6;5;
43280;PMS5003;62175;49.416;8.690;2023-02-25T02:45:30;6;5;
43280;PMS5003;62175;49.416;8.690;2023-02-25T02:48:04;6;6;
43280;PMS5003;62175;49.416;8.690;2023-02-25T02:50:37;5;4;
43280;PMS5003;62175;49.416;8.690;2023-02-25T02:53:09;6;5;
43280;PMS5003;62175;49.416;8.690;2023-02-25T02:55:40;6;6;
43280;PMS5003;62175;49.416;8.690;2023-02-25T02:58:10;5;3;
43280;PMS5003;62175;49.416;8.690;2023-02-25T03:00:43;4;4;
43280;PMS5003;62175;49.416;8.690;2023-02-25T03:03:15;7;6;
43280;PMS5003;62175;49.416;8.690;2023-02-25T03:05:48;6;5;
43280;PMS5003;62175;49.416;8.690;2023-02-25T03:08:19;6;5;
43280;PMS5003;62175;49.416;8.690;2023-02-25T03:10:50;6;6;
43280;PMS5003;62175;49.416;8.690;2023-02-25T03:13:17;6;5;
43280;PMS5003;62175;49.416;8.690;2023-02-25T03:15:45;3;3;
43280;PMS5003;62175;49.416;8.690;2023-02-25T03:18:17;6;5;
43280;PMS5003;62175;49.416;8.690;2023-02-25T03:20:50;4;4;
43280;PMS5003;62175;49.416;8.690;2023-02-25T03:23:21;6;4;
43280;PMS5003;62175;49.416;8.690;2023-02-25T03:25:52;6;4;
43280;PMS5003;62175;49.416;8.690;2023-02-25T03:28:26;5;5;
43280;PMS5003;62175;49.416;8.690;2023-02-25T03:30:57;5;4;
43280;PMS5003;62175;49.416;8.690;2023-02-25T03:33:32;5;4;
43280;PMS5003;62175;49.416;8.690;2023-02-25T03:36:05;6;4;
43280;PMS5003;62175;49.416;8.690;2023-02-25T03:38:36;3;3;
43280;PMS5003;62175;49.416;8.690;2023-02-25T03:41:07;7;5;
43280;PMS5003;62175;49.416;8.690;2023-02-25T03:43:38;5;5;
43280;PMS5003;62175;49.416;8.690;2023-02-25T03:46:09;6;5;
43280;PMS5003;62175;49.416;8.690;2023-02-25T03:48:37;6;4;
43280;PMS5003;62175;49.416;8.690;2023-02-25T03:51:07;10;9;
43280;PMS5003;62175;49.416;8.690;2023-02-25T03:53:38;8;6;
43280;PMS5003;62175;49.416;8.690;2023-02-25T03:56:07;5;5;
43280;PMS5003;62175;49.416;8.690;2023-02-25T03:58:36;4;3;
43280;PMS5003;62175;49.416;8.690;2023-02-25T04:01:06;5;4;
43280;PMS5003;62175;49.416;8.690;2023-02-25T04:03:37;3;3;
43280;PMS5003;62175;49.416;8.690;2023-02-25T04:06:04;5;5;
43280;PMS5003;62175;49.416;8.690;2023-02-25T04:08:32;5;3;
43280;PMS5003;62175;49.416;8.690;2023-02-25T04:11:12;3;2;
43280;PMS5003;62175;49.416;8.690;2023-02-25T04:13:39;5;5;
43280;PMS5003;62175;49.416;8.690;2023-02-25T04:16:06;3;2;
43280;PMS5003;62175;49.416;8.690;2023-02-25T04:18:33;4;4;
43280;PMS5003;62175;49.416;8.690;2023-02-25T04:21:01;2;2;
43280;PMS5003;62175;49.416;8.690;2023-02-25T04:23:30;4;3;
43280;PMS5003;62175;49.416;8.690;2023-02-25T04:25:57;4;4;
43280;PMS5003;62175;49.416;8.690;2023-02-25T04:28:24;7;3;
43280;PMS5003;62175;49.416;8.690;2023-02-25T04:30:52;4;4;
43280;PMS5003;62175;49.416;8.690;2023-02-25T04:33:19;4;3;
43280;PMS5003;62175;49.416;8.690;2023-02-25T04:35:46;4;4;
43280;PMS5003;62175;49.416;8.690;2023-02-25T04:38:14;5;4;
43280;PMS5003;62175;49.416;8.690;2023-02-25T04:40:41;2;2;
43280;PMS5003;62175;49.416;8.690;2023-02-25T04:43:08;2;2;
43280;PMS5003;62175;49.416;8.690;2023-02-25T04:45:35;2;2;
43280;PMS5003;62175;49.416;8.690;2023-02-25T04:48:03;4;4;
43280;PMS5003;62175;49.416;8.690;2023-02-25T04:50:31;3;2;
43280;PMS5003;62175;49.416;8.690;2023-02-25T04:52:58;3;2;
43280;PMS5003;62175;49.416;8.690;2023-02-25T04:55:26;2;1;
43280;PMS5003;62175;49.416;8.690;2023-02-25T04:57:54;3;3;
43280;PMS5003;62175;49.416;8.690;2023-02-25T05:00:21;3;3;
43280;PMS5003;62175;49.416;8.690;2023-02-25T05:02:49;2;2;
43280;PMS5003;62175;49.416;8.690;2023-02-25T05:05:17;2;2;
43280;PMS5003;62175;49.416;8.690;2023-02-25T05:07:44;2;1;
43280;PMS5003;62175;49.416;8.690;2023-02-25T05:10:12;3;2;
43280;PMS5003;62175;49.416;8.690;2023-02-25T05:12:40;2;2;
43280;PMS5003;62175;49.416;8.690;2023-02-25T05:15:07;3;2;
43280;PMS5003;62175;49.416;8.690;2023-02-25T05:17:35;2;2;
43280;PMS5003;62175;49.416;8.690;2023-02-25T05:20:03;3;2;
43280;PMS5003;62175;49.416;8.690;2023-02-25T05:22:31;1;1;
43280;PMS5003;62175;49.416;8.690;2023-02-25T05:24:58;2;2;
43280;PMS5003;62175;49.416;8.690;2023-02-25T05:27:25;2;2;
43280;PMS5003;62175;49.416;8.690;2023-02-25T05:29:53;3;2;
43280;PMS5003;62175;49.416;8.690;2023-02-25T05:32:20;2;2;
43280;PMS5003;62175;49.416;8.690;2023-02-25T05:34:47;2;2;
43280;PMS5003;62175;49.416;8.690;2023-02-25T05:37:15;3;3;
43280;PMS5003;62175;49.416;8.690;2023-02-25T05:39:42;2;2;
43280;PMS5003;62175;49.416;8.690;2023-02-25T05:42:09;3;3;
43280;PMS5003;62175;49.416;8.690;2023-02-25T05:44:37;3;1;
43280;PMS5003;62175;49.416;8.690;2023-02-25T05:47:04;1;1;
43280;PMS5003;62175;49.416;8.690;2023-02-25T05:49:31;2;2;
43280;PMS5003;62175;49.416;8.690;2023-02-25T05:51:58;5;2;
43280;PMS5003;62175;49.416;8.690;2023-02-25T05:54:26;2;2;
43280;PMS5003;62175;49.416;8.690;2023-02-25T05:56:53;6;2;
43280;PMS5003;62175;49.416;8.690;2023-02-25T05:59:20;2;1;
43280;PMS5003;62175;49.416;8.690;2023-02-25T06:01:48;2;2;
43280;PMS5003;62175;49.416;8.690;2023-02-25T06:04:15;3;3;
43280;PMS5003;62175;49.416;8.690;2023-02-25T06:06:42;5;2;
43280;PMS5003;62175;49.416;8.690;2023-02-25T06:09:10;4;3;
43280;PMS5003;62175;49.416;8.690;2023-02-25T06:11:37;2;2;
43280;PMS5003;62175;49.416;8.690;2023-02-25T06:14:04;2;2;
43280;PMS5003;62175;49.416;8.690;2023-02-25T06:16:31;3;2;
43280;PMS5003;62175;49.416;8.690;2023-02-25T06:18:59;3;3;
43280;PMS5003;62175;49.416;8.690;2023-02-25T06:21:27;3;3;
43280;PMS5003;62175;49.416;8.690;2023-02-25T06:23:55;2;2;
43280;PMS5003;62175;49.416;8.690;2023-02-25T06:26:23;3;2;
43280;PMS5003;62175;49.416;8.690;2023-02-25T06:28:50;2;1;
43280;PMS5003;62175;49.416;8.690;2023-02-25T06:31:18;4;3;
43280;PMS5003;62175;49.416;8.690;2023-02-25T06:33:46;2;1;
43280;PMS5003;62175;49.416;8.690;2023-02-25T06:36:13;1;1;
43280;PMS5003;62175;49.416;8.690;2023-02-25T06:38:41;2;2;
43280;PMS5003;62175;49.416;8.690;2023-02-25T06:41:09;3;3;
43280;PMS5003;62175;49.416;8.690;2023-02-25T06:43:38;2;2;
43280;PMS5003;62175;49.416;8.690;2023-02-25T06:46:06;5;3;
43280;PMS5003;62175;49.416;8.690;2023-02-25T06:48:36;5;4;
43280;PMS5003;62175;49.416;8.690;2023-02-25T06:51:03;2;2;
43280;PMS5003;62175;49.416;8.690;2023-02-25T06:53:31;5;4;
43280;PMS5003;62175;49.416;8.690;2023-02-25T06:55:58;1;1;
43280;PMS5003;62175;49.416;8.690;2023-02-25T06:58:26;2;2;
43280;PMS5003;62175;49.416;8.690;2023-02-25T07:00:53;2;2;
43280;PMS5003;62175;49.416;8.690;2023-02-25T07:03:20;4;4;
43280;PMS5003;62175;49.416;8.690;2023-02-25T07:05:48;3;3;
43280;PMS5003;62175;49.416;8.690;2023-02-25T07:08:15;3;2;
43280;PMS5003;62175;49.416;8.690;2023-02-25T07:10:43;3;3;
43280;PMS5003;62175;49.416;8.690;2023-02-25T07:13:10;3;3;
43280;PMS5003;62175;49.416;8.690;2023-02-25T07:15:37;3;3;
43280;PMS5003;62175;49.416;8.690;2023-02-25T07:18:05;2;2;
43280;PMS5003;62175;49.416;8.690;2023-02-25T07:20:32;4;3;
43280;PMS5003;62175;49.416;8.690;2023-02-25T07:23:01;3;2;
43280;PMS5003;62175;49.416;8.690;2023-02-25T07:25:29;4;2;
43280;PMS5003;62175;49.416;8.690;2023-02-25T07:27:56;3;3;
43280;PMS5003;62175;49.416;8.690;2023-02-25T07:30:24;3;3;
43280;PMS5003;62175;49.416;8.690;2023-02-25T07:32:51;4;3;
43280;PMS5003;62175;49.416;8.690;2023-02-25T07:35:18;3;3;
43280;PMS5003;62175;49.416;8.690;2023-02-25T07:37:45;3;2;
43280;PMS5003;62175;49.416;8.690;2023-02-25T07:40:13;4;3;
43280;PMS5003;62175;49.416;8.690;2023-02-25T07:42:40;4;4;
43280;PMS5003;62175;49.416;8.690;2023-02-25T07:45:08;3;3;
43280;PMS5003;62175;49.416;8.690;2023-02-25T07:47:36;3;2;
43280;PMS5003;62175;49.416;8.690;2023-02-25T07:50:04;3;3;
43280;PMS5003;62175;49.416;8.690;2023-02-25T07:52:33;3;3;
43280;PMS5003;62175;49.416;8.690;2023-02-25T07:55:00;2;2;
43280;PMS5003;62175;49.416;8.690;2023-02-25T07:57:27;2;2;
43280;PMS5003;62175;49.416;8.690;2023-02-25T07:59:55;5;4;
43280;PMS5003;62175;49.416;8.690;2023-02-25T08:02:21;3;2;
43280;PMS5003;62175;49.416;8.690;2023-02-25T08:04:49;2;2;
43280;PMS5003;62175;49.416;8.690;2023-02-25T08:07:16;4;3;
43280;PMS5003;62175;49.416;8.690;2023-02-25T08:09:44;2;2;
43280;PMS5003;62175;49.416;8.690;2023-02-25T08:12:11;5;4;
43280;PMS5003;62175;49.416;8.690;2023-02-25T08:14:38;4;3;
43280;PMS5003;62175;49.416;8.690;2023-02-25T08:17:05;3;3;
43280;PMS5003;62175;49.416;8.690;2023-02-25T08:19:33;6;5;
43280;PMS5003;62175;49.416;8.690;2023-02-25T08:22:00;4;4;
43280;PMS5003;62175;49.416;8.690;2023-02-25T08:24:27;4;4;
43280;PMS5003;62175;49.416;8.690;2023-02-25T08:26:55;3;2;
43280;PMS5003;62175;49.416;8.690;2023-02-25T08:29:22;4;3;
43280;PMS5003;62175;49.416;8.690;2023-02-25T08:31:49;1;1;
43280;PMS5003;62175;49.416;8.690;2023-02-25T08:34:16;3;2;
43280;PMS5003;62175;49.416;8.690;2023-02-25T08:36:44;3;2;
43280;PMS5003;62175;49.416;8.690;2023-02-25T08:39:11;1;1;
43280;PMS5003;62175;49.416;8.690;2023-02-25T08:41:38;4;4;
43280;PMS5003;62175;49.416;8.690;2023-02-25T08:44:06;2;2;
43280;PMS5003;62175;49.416;8.690;2023-02-25T08:46:33;2;1;
43280;PMS5003;62175;49.416;8.690;2023-02-25T08:49:00;4;3;
43280;PMS5003;62175;49.416;8.690;2023-02-25T08:51:28;4;3;
43280;PMS5003;62175;49.416;8.690;2023-02-25T08:53:56;2;2;
43280;PMS5003;62175;49.416;8.690;2023-02-25T08:56:23;2;2;
43280;PMS5003;62175;49.416;8.690;2023-02-25T08:58:50;4;4;
43280;PMS5003;62175;49.416;8.690;2023-02-25T09:01:18;2;2;
43280;PMS5003;62175;49.416;8.690;2023-02-25T09:03:47;2;2;
43280;PMS5003;62175;49.416;8.690;2023-02-25T09:06:14;1;0;
43280;PMS5003;62175;49.416;8.690;2023-02-25T09:08:41;4;3;
43280;PMS5003;62175;49.416;8.690;2023-02-25T09:11:09;2;2;
43280;PMS5003;62175;49.416;8.690;2023-02-25T09:13:36;3;2;
43280;PMS5003;62175;49.416;8.690;2023-02-25T09:16:04;3;3;
43280;PMS5003;62175;49.416;8.690;2023-02-25T09:18:31;5;4;
43280;PMS5003;62175;49.416;8.690;2023-02-25T09:20:59;3;2;
43280;PMS5003;62175;49.416;8.690;2023-02-25T09:23:26;5;3;
43280;PMS5003;62175;49.416;8.690;2023-02-25T09:25:54;3;2;
43280;PMS5003;62175;49.416;8.690;2023-02-25T09:28:22;3;3;
43280;PMS5003;62175;49.416;8.690;2023-02-25T09:30:49;3;3;
43280;PMS5003;62175;49.416;8.690;2023-02-25T09:33:17;3;2;
43280;PMS5003;62175;49.416;8.690;2023-02-25T09:35:44;4;3;
43280;PMS5003;62175;49.416;8.690;2023-02-25T09:38:11;5;5;
43280;PMS5003;62175;49.416;8.690;2023-02-25T09:40:39;3;3;
43280;PMS5003;62175;49.416;8.690;2023-02-25T09:43:15;3;3;
43280;PMS5003;62175;49.416;8.690;2023-02-25T09:45:46;2;2;
43280;PMS5003;62175;49.416;8.690;2023-02-25T09:48:14;3;3;
43280;PMS5003;62175;49.416;8.690;2023-02-25T09:50:46;4;4;
43280;PMS5003;62175;49.416;8.690;2023-02-25T09:53:17;6;5;
43280;PMS5003;62175;49.416;8.690;2023-02-25T09:55:49;4;4;
43280;PMS5003;62175;49.416;8.690;2023-02-25T09:58:22;5;4;
43280;PMS5003;62175;49.416;8.690;2023-02-25T10:00:56;5;5;
43280;PMS5003;62175;49.416;8.690;2023-02-25T10:03:38;2;2;
43280;PMS5003;62175;49.416;8.690;2023-02-25T10:06:15;4;3;
43280;PMS5003;62175;49.416;8.690;2023-02-25T10:08:49;3;2;
43280;PMS5003;62175;49.416;8.690;2023-02-25T10:11:26;2;2;
43280;PMS5003;62175;49.416;8.690;2023-02-25T10:14:06;3;1;
43280;PMS5003;62175;49.416;8.690;2023-02-25T10:16:45;3;2;
43280;PMS5003;62175;49.416;8.690;2023-02-25T10:19:21;3;1;
43280;PMS5003;62175;49.416;8.690;2023-02-25T10:22:04;3;2;
43280;PMS5003;62175;49.416;8.690;2023-02-25T10:24:44;2;2;
43280;PMS5003;62175;49.416;8.690;2023-02-25T10:27:17;4;2;
43280;PMS5003;62175;49.416;8.690;2023-02-25T10:29:48;3;3;
43280;PMS5003;62175;49.416;8.690;2023-02-25T10:32:19;2;2;
43280;PMS5003;62175;49.416;8.690;2023-02-25T10:34:48;1;1;
43280;PMS5003;62175;49.416;8.690;2023-02-25T10:37:19;0;0;
43280;PMS5003;62175;49.416;8.690;2023-02-25T10:39:48;1;0;
43280;PMS5003;62175;49.416;8.690;2023-02-25T10:42:17;2;1;
43280;PMS5003;62175;49.416;8.690;2023-02-25T10:44:45;1;1;
43280;PMS5003;62175;49.416;8.690;2023-02-25T10:47:13;1;0;
43280;PMS5003;62175;49.416;8.690;2023-02-25T10:50:09;2;1;
43280;PMS5003;62175;49.416;8.690;2023-02-25T10:52:50;3;2;
43280;PMS5003;62175;49.416;8.690;2023-02-25T10:55:25;1;1;
43280;PMS5003;62175;49.416;8.690;2023-02-25T10:57:55;1;1;
43280;PMS5003;62175;49.416;8.690;2023-02-25T11:00:25;4;2;
43280;PMS5003;62175;49.416;8.690;2023-02-25T11:02:54;3;3;
43280;PMS5003;62175;49.416;8.690;2023-02-25T11:05:33;3;2;
43280;PMS5003;62175;49.416;8.690;2023-02-25T11:08:01;2;2;
43280;PMS5003;62175;49.416;8.690;2023-02-25T11:10:29;5;4;
43280;PMS5003;62175;49.416;8.690;2023-02-25T11:12:57;4;4;
43280;PMS5003;62175;49.416;8.690;2023-02-25T11:15:28;6;5;
43280;PMS5003;62175;49.416;8.690;2023-02-25T11:17:58;4;3;
43280;PMS5003;62175;49.416;8.690;2023-02-25T11:20:31;3;3;
43280;PMS5003;62175;49.416;8.690;2023-02-25T11:22:59;4;3;
43280;PMS5003;62175;49.416;8.690;2023-02-25T11:25:32;4;3;
43280;PMS5003;62175;49.416;8.690;2023-02-25T11:28:04;4;3;
43280;PMS5003;62175;49.416;8.690;2023-02-25T11:30:35;2;2;
43280;PMS5003;62175;49.416;8.690;2023-02-25T11:33:06;2;2;
43280;PMS5003;62175;49.416;8.690;2023-02-25T11:35:40;2;2;
43280;PMS5003;62175;49.416;8.690;2023-02-25T11:38:12;3;2;
43280;PMS5003;62175;49.416;8.690;2023-02-25T11:40:44;2;2;
43280;PMS5003;62175;49.416;8.690;2023-02-25T11:43:14;2;2;
43280;PMS5003;62175;49.416;8.690;2023-02-25T11:45:48;2;2;
43280;PMS5003;62175;49.416;8.690;2023-02-25T11:48:19;2;2;
43280;PMS5003;62175;49.416;8.690;2023-02-25T11:50:52;3;2;
43280;PMS5003;62175;49.416;8.690;2023-02-25T11:53:30;3;2;
43280;PMS5003;62175;49.416;8.690;2023-02-25T11:56:11;3;3;
43280;PMS5003;62175;49.416;8.690;2023-02-25T11:58:46;4;3;
43280;PMS5003;62175;49.416;8.690;2023-02-25T12:01:20;3;2;
43280;PMS5003;62175;49.416;8.690;2023-02-25T12:04:09;2;2;
43280;PMS5003;62175;49.416;8.690;2023-02-25T12:06:56;3;3;
43280;PMS5003;62175;49.416;8.690;2023-02-25T12:09:54;2;2;
43280;PMS5003;62175;49.416;8.690;2023-02-25T12:12:41;3;3;
43280;PMS5003;62175;49.416;8.690;2023-02-25T12:15:39;2;2;
43280;PMS5003;62175;49.416;8.690;2023-02-25T12:18:31;5;3;
43280;PMS5003;62175;49.416;8.690;2023-02-25T12:21:20;2;2;
43280;PMS5003;62175;49.416;8.690;2023-02-25T12:24:19;1;1;
43280;PMS5003;62175;49.416;8.690;2023-02-25T12:27:04;3;2;
43280;PMS5003;62175;49.416;8.690;2023-02-25T12:29:55;4;3;
43280;PMS5003;62175;49.416;8.690;2023-02-25T12:32:38;3;2;
43280;PMS5003;62175;49.416;8.690;2023-02-25T12:35:34;3;3;
43280;PMS5003;62175;49.416;8.690;2023-02-25T12:39:24;2;2;
43280;PMS5003;62175;49.416;8.690;2023-02-25T12:42:03;1;1;
43280;PMS5003;62175;49.416;8.690;2023-02-25T12:44:54;2;2;
43280;PMS5003;62175;49.416;8.690;2023-02-25T12:47:43;2;2;
43280;PMS5003;62175;49.416;8.690;2023-02-25T12:50:22;2;1;
43280;PMS5003;62175;49.416;8.690;2023-02-25T12:53:04;2;2;
43280;PMS5003;62175;49.416;8.690;2023-02-25T12:55:49;1;1;
43280;PMS5003;62175;49.416;8.690;2023-02-25T12:58:37;2;2;
43280;PMS5003;62175;49.416;8.690;2023-02-25T13:01:29;1;1;
43280;PMS5003;62175;49.416;8.690;2023-02-25T13:04:12;3;2;
43280;PMS5003;62175;49.416;8.690;2023-02-25T13:07:13;1;1;
43280;PMS5003;62175;49.416;8.690;2023-02-25T13:09:56;1;1;
43280;PMS5003;62175;49.416;8.690;2023-02-25T13:12:37;1;0;
43280;PMS5003;62175;49.416;8.690;2023-02-25T13:15:17;3;3;
43280;PMS5003;62175;49.416;8.690;2023-02-25T13:17:52;3;2;
43280;PMS5003;62175;49.416;8.690;2023-02-25T13:20:43;1;1;
43280;PMS5003;62175;49.416;8.690;2023-02-25T13:23:29;2;2;
43280;PMS5003;62175;49.416;8.690;2023-02-25T13:26:16;3;3;
43280;PMS5003;62175;49.416;8.690;2023-02-25T13:28:59;2;2;
43280;PMS5003;62175;49.416;8.690;2023-02-25T13:31:41;2;1;
43280;PMS5003;62175;49.416;8.690;2023-02-25T13:34:18;2;1;
43280;PMS5003;62175;49.416;8.690;2023-02-25T13:36:59;1;1;
43280;PMS5003;62175;49.416;8.690;2023-02-25T13:39:48;2;1;
43280;PMS5003;62175;49.416;8.690;2023-02-25T13:42:33;2;2;
43280;PMS5003;62175;49.416;8.690;2023-02-25T13:45:27;2;1;
43280;PMS5003;62175;49.416;8.690;2023-02-25T13:48:24;3;3;
43280;PMS5003;62175;49.416;8.690;2023-02-25T13:51:07;3;3;
43280;PMS5003;62175;49.416;8.690;2023-02-25T13:53:55;5;3;
43280;PMS5003;62175;49.416;8.690;2023-02-25T13:56:51;2;1;
43280;PMS5003;62175;49.416;8.690;2023-02-25T13:59:30;3;3;
43280;PMS5003;62175;49.416;8.690;2023-02-25T14:02:16;3;3;
43280;PMS5003;62175;49.416;8.690;2023-02-25T14:05:10;3;2;
43280;PMS5003;62175;49.416;8.690;2023-02-25T14:07:53;3;2;
43280;PMS5003;62175;49.416;8.690;2023-02-25T14:10:34;3;3;
43280;PMS5003;62175;49.416;8.690;2023-02-25T14:13:13;5;3;
43280;PMS5003;62175;49.416;8.690;2023-02-25T14:15:34;5;3;
43280;PMS5003;62175;49.416;8.690;2023-02-25T14:18:16;3;3;
43280;PMS5003;62175;49.416;8.690;2023-02-25T14:20:57;3;3;
43280;PMS5003;62175;49.416;8.690;2023-02-25T14:23:42;4;3;
43280;PMS5003;62175;49.416;8.690;2023-02-25T14:26:17;5;5;
43280;PMS5003;62175;49.416;8.690;2023-02-25T14:28:54;6;6;
43280;PMS5003;62175;49.416;8.690;2023-02-25T14:31:36;4;4;
43280;PMS5003;62175;49.416;8.690;2023-02-25T14:34:19;3;3;
43280;PMS5003;62175;49.416;8.690;2023-02-25T14:37:03;4;4;
43280;PMS5003;62175;49.416;8.690;2023-02-25T14:39:44;5;5;
43280;PMS5003;62175;49.416;8.690;2023-02-25T14:42:24;3;2;
43280;PMS5003;62175;49.416;8.690;2023-02-25T14:45:01;11;9;
43280;PMS5003;62175;49.416;8.690;2023-02-25T14:47:41;4;4;
43280;PMS5003;62175;49.416;8.690;2023-02-25T14:50:14;5;4;
43280;PMS5003;62175;49.416;8.690;2023-02-25T14:52:54;3;3;
43280;PMS5003;62175;49.416;8.690;2023-02-25T14:56:42;1;1;
43280;PMS5003;62175;49.416;8.690;2023-02-25T15:00:02;4;2;
43280;PMS5003;62175;49.416;8.690;2023-02-25T15:03:06;4;2;
43280;PMS5003;62175;49.416;8.690;2023-02-25T15:05:54;2;2;
43280;PMS5003;62175;49.416;8.690;2023-02-25T15:08:43;1;1;
43280;PMS5003;62175;49.416;8.690;2023-02-25T15:11:30;2;2;
43280;PMS5003;62175;49.416;8.690;2023-02-25T15:14:16;4;4;
43280;PMS5003;62175;49.416;8.690;2023-02-25T15:19:43;3;2;
43280;PMS5003;62175;49.416;8.690;2023-02-25T15:23:40;4;4;
43280;PMS5003;62175;49.416;8.690;2023-02-25T15:26:22;2;2;
43280;PMS5003;62175;49.416;8.690;2023-02-25T15:28:54;1;1;
43280;PMS5003;62175;49.416;8.690;2023-02-25T15:33:21;3;2;
43280;PMS5003;62175;49.416;8.690;2023-02-25T15:35:56;3;3;
43280;PMS5003;62175;49.416;8.690;2023-02-25T15:38:58;3;2;
43280;PMS5003;62175;49.416;8.690;2023-02-25T15:49:48;2;2;
43280;PMS5003;62175;49.416;8.690;2023-02-25T16:12:24;1;0;
43280;PMS5003;62175;49.416;8.690;2023-02-25T16:14:54;1;1;
43280;PMS5003;62175;49.416;8.690;2023-02-25T16:17:26;1;1;
43280;PMS5003;62175;49.416;8.690;2023-02-25T16:19:58;1;1;
43280;PMS5003;62175;49.416;8.690;2023-02-25T16:22:31;1;1;
43280;PMS5003;62175;49.416;8.690;2023-02-25T16:24:59;2;1;
43280;PMS5003;62175;49.416;8.690;2023-02-25T16:27:38;1;1;
43280;PMS5003;62175;49.416;8.690;2023-02-25T16:30:14;0;0;
43280;PMS5003;62175;49.416;8.690;2023-02-25T16:32:48;1;1;
43280;PMS5003;62175;49.416;8.690;2023-02-25T16:35:42;1;1;
43280;PMS5003;62175;49.416;8.690;2023-02-25T16:39:23;0;0;
43280;PMS5003;62175;49.416;8.690;2023-02-25T16:45:25;1;1;
43280;PMS5003;62175;49.416;8.690;2023-02-25T16:47:56;3;2;
43280;PMS5003;62175;49.416;8.690;2023-02-25T16:50:25;2;2;
43280;PMS5003;62175;49.416;8.690;2023-02-25T16:52:54;2;2;
43280;PMS5003;62175;49.416;8.690;2023-02-25T16:55:34;2;2;
43280;PMS5003;62175;49.416;8.690;2023-02-25T16:58:17;1;1;
43280;PMS5003;62175;49.416;8.690;2023-02-25T17:00:48;2;2;
43280;PMS5003;62175;49.416;8.690;2023-02-25T17:03:18;3;3;
43280;PMS5003;62175;49.416;8.690;2023-02-25T17:05:58;2;2;
43280;PMS5003;62175;49.416;8.690;2023-02-25T17:08:28;3;2;
43280;PMS5003;62175;49.416;8.690;2023-02-25T17:10:56;2;2;
43280;PMS5003;62175;49.416;8.690;2023-02-25T17:13:28;2;2;
43280;PMS5003;62175;49.416;8.690;2023-02-25T17:16:16;2;2;
43280;PMS5003;62175;49.416;8.690;2023-02-25T17:18:47;3;3;
43280;PMS5003;62175;49.416;8.690;2023-02-25T17:21:20;4;3;
43280;PMS5003;62175;49.416;8.690;2023-02-25T17:23:54;2;2;
43280;PMS5003;62175;49.416;8.690;2023-02-25T17:26:24;4;3;
43280;PMS5003;62175;49.416;8.690;2023-02-25T17:28:58;2;2;
43280;PMS5003;62175;49.416;8.690;2023-02-25T17:34:27;2;2;
43280;PMS5003;62175;49.416;8.690;2023-02-25T17:40:18;4;4;
43280;PMS5003;62175;49.416;8.690;2023-02-25T17:45:55;4;4;
43280;PMS5003;62175;49.416;8.690;2023-02-25T17:48:29;3;3;
43280;PMS5003;62175;49.416;8.690;2023-02-25T17:51:02;5;4;
43280;PMS5003;62175;49.416;8.690;2023-02-25T17:53:40;9;8;
43280;PMS5003;62175;49.416;8.690;2023-02-25T17:56:18;9;7;
43280;PMS5003;62175;49.416;8.690;2023-02-25T17:58:49;9;9;
43280;PMS5003;62175;49.416;8.690;2023-02-25T18:01:21;17;11;
43280;PMS5003;62175;49.416;8.690;2023-02-25T18:03:55;19;16;
43280;PMS5003;62175;49.416;8.690;2023-02-25T18:06:36;9;9;
43280;PMS5003;62175;49.416;8.690;2023-02-25T18:25:47;8;6;
43280;PMS5003;62175;49.416;8.690;2023-02-25T18:28:34;9;7;
43280;PMS5003;62175;49.416;8.690;2023-02-25T18:31:01;13;13;
43280;PMS5003;62175;49.416;8.690;2023-02-25T18:33:33;7;6;
43280;PMS5003;62175;49.416;8.690;2023-02-25T18:36:03;10;10;
43280;PMS5003;62175;49.416;8.690;2023-02-25T18:38:33;11;10;